Página principal
METAR-TAF:

METAR-TAF

Aeroportos :

Ponta Delgada, Açores, Portugal

Aeroporto João Paulo II

latitude: 37-44N, longitude: 025-42W, altura: 71 m

Observação actual do tempo

O boletim foi feito há 16 minutos, às 10:30 UTC
Vento 9 kt de nordeste, variando entre norte e este
Temperatura 21°C
Humidade 64%
Pressão 1024 hPa
Visibilidade 10 km ou mais
Poucas nuvensa uma altura de 2300 ft
Nuvens fragmentadasa uma altura de 3500 ft

METAR: LPPD 221030Z 05009KT 010V080 9999 FEW023 BKN035 21/14 Q1024

Hora: 10:46 (10:46 UTC)

Previsão

O boletim foi feito há 5 horas e 16 minutos, às 05:30 UTC
Previsão válida de 22 às 06 UTC a 23 às 06 UTC
Vento 10 kt de norte
Visibilidade 10 km ou mais
Nuvens dispersasa uma altura de 2000 ft
Nuvens fragmentadasa uma altura de 4000 ft

TAF: LPPD 220530Z 2206/2306 01010KT 9999 SCT020 BKN040

Observações e previsões do tempo de mais de 4000 aeroportos (mensagens METAR e TAF).

As estações disponíveis são os pontos amarelos e vermelhos sobre o mapa.

Mova o rato sobre o mapa para ver o nome da estação.

Depois clique no ponto para visualizar as observações e previsões meteorológicas.

Para alterar o mapa : clique nos botões verdes com uma cruz preta para aumentar o zoom; no botão verde com uma pitada de zoom; ou nas setas verdes para mapas adjacentes.


METAR-TAF: